Costilla, New Mexico
Current Conditions -  °F | °C
As of 3:27 PM on Sunday 23 Nov 2014 (Local Time) from KALS Reporting Station
Broken Clouds Broken Clouds  
Wind Chill: 19°   Ceiling: 3200
Heat Index: 32°   Visibility: 9mi
Dew Point: 13°   Wind: 22mph
Humidity: 45%   Direction: 340°NNW
Pressure: 29.81"   Gusts: 36mph
Location:  36.99°N, 105.53°W
Report Text: KALS 232227Z AUTO 34019G31KT 9SM FEW006 BKN032 BKN060 00/M11 A2981 RMK AO2 PK WND 33036/2206 T00001106
Loading
Personal Weather Stations






























Interactive Weather Map New forecast layout! Learn more

10-Day Weather Forecast

Advertisements
Track Severe Weather on mobile